createdAt,value
2022-12-31T00:00:24.120Z,73.36
2022-12-31T00:02:55.812Z,73.90
2022-12-31T00:05:27.726Z,73.86
2022-12-31T00:07:59.528Z,73.57
2022-12-31T00:10:31.366Z,73.28
2022-12-31T00:13:03.248Z,73.19
2022-12-31T00:15:35.222Z,73.43
2022-12-31T00:18:08.209Z,73.82
2022-12-31T00:20:43.559Z,73.66
2022-12-31T00:23:15.154Z,73.88
2022-12-31T00:25:46.749Z,73.70
2022-12-31T00:28:18.715Z,73.83
2022-12-31T00:30:50.531Z,73.93
2022-12-31T00:33:22.326Z,74.22
2022-12-31T00:35:54.748Z,73.79
2022-12-31T00:38:26.348Z,74.00
2022-12-31T00:40:58.570Z,74.04
2022-12-31T00:43:30.245Z,74.16
2022-12-31T00:46:28.677Z,74.15
2022-12-31T00:49:18.371Z,74.10
2022-12-31T00:52:34.843Z,74.38
2022-12-31T00:55:07.655Z,74.90
2022-12-31T00:57:39.604Z,74.81
2022-12-31T01:00:24.266Z,74.74
2022-12-31T01:02:56.148Z,74.87
2022-12-31T01:05:28.057Z,74.22
2022-12-31T01:08:23.930Z,73.70
2022-12-31T01:11:12.873Z,73.47
2022-12-31T01:13:44.638Z,73.36
2022-12-31T01:16:17.703Z,73.57
2022-12-31T01:18:49.312Z,73.64
2022-12-31T01:21:21.796Z,73.29
2022-12-31T01:24:00.035Z,73.00
2022-12-31T01:26:31.702Z,73.22
2022-12-31T01:29:17.327Z,73.63
2022-12-31T01:32:00.830Z,73.79
2022-12-31T01:34:53.928Z,73.70
2022-12-31T01:38:26.752Z,73.59
2022-12-31T01:40:58.478Z,73.23
2022-12-31T01:43:47.691Z,73.04
2022-12-31T01:46:25.374Z,72.66
2022-12-31T01:49:00.881Z,72.77
2022-12-31T01:51:36.265Z,73.00
2022-12-31T01:54:10.936Z,73.16
2022-12-31T01:56:44.866Z,73.27
2022-12-31T01:59:18.976Z,72.91
2022-12-31T02:01:54.248Z,72.43
2022-12-31T02:04:28.208Z,72.37
2022-12-31T02:07:03.171Z,72.67
2022-12-31T02:09:36.010Z,72.90
2022-12-31T02:12:08.935Z,73.07
2022-12-31T02:14:44.161Z,72.35
2022-12-31T02:17:27.164Z,72.00
2022-12-31T02:20:21.122Z,72.03
2022-12-31T02:23:08.972Z,71.69
2022-12-31T02:26:12.323Z,71.77
2022-12-31T02:29:05.417Z,71.96
2022-12-31T02:31:41.104Z,72.26
2022-12-31T02:34:17.348Z,71.84
2022-12-31T02:36:53.050Z,71.75
2022-12-31T02:39:25.045Z,71.63
2022-12-31T02:41:56.677Z,71.84
2022-12-31T02:44:30.439Z,72.15
2022-12-31T02:47:22.346Z,72.03
2022-12-31T02:50:06.898Z,71.39
2022-12-31T02:52:48.590Z,70.77
2022-12-31T02:55:26.406Z,70.28
2022-12-31T02:58:05.595Z,70.16
2022-12-31T03:01:04.111Z,69.98
2022-12-31T03:03:36.923Z,70.02
2022-12-31T03:06:11.419Z,69.65
2022-12-31T03:08:59.453Z,69.75
2022-12-31T03:11:48.956Z,70.53
2022-12-31T03:14:20.666Z,71.08
2022-12-31T03:16:52.190Z,71.09
2022-12-31T03:20:10.446Z,71.42
2022-12-31T03:22:44.647Z,71.61
2022-12-31T03:25:41.003Z,71.96
2022-12-31T03:28:14.885Z,72.09
2022-12-31T03:30:53.148Z,72.28
2022-12-31T03:33:36.620Z,72.26
2022-12-31T03:36:10.473Z,71.81
2022-12-31T03:38:42.363Z,71.32
2022-12-31T03:41:14.699Z,71.36
2022-12-31T03:43:46.270Z,71.18
2022-12-31T03:46:17.994Z,71.37
2022-12-31T03:48:50.077Z,71.51
2022-12-31T03:51:22.002Z,71.53
2022-12-31T03:53:53.653Z,71.45
2022-12-31T03:56:25.232Z,71.67
2022-12-31T03:58:56.903Z,71.99
2022-12-31T04:01:28.616Z,72.17
2022-12-31T04:04:00.462Z,71.87
2022-12-31T04:06:32.096Z,71.57
2022-12-31T04:09:04.417Z,71.01
2022-12-31T04:11:35.894Z,71.41
2022-12-31T04:14:09.068Z,71.83
2022-12-31T04:16:40.917Z,71.99
2022-12-31T04:19:13.006Z,71.90
2022-12-31T04:21:44.640Z,71.67
2022-12-31T04:24:16.741Z,71.23
2022-12-31T04:26:48.457Z,71.09
2022-12-31T04:29:20.146Z,71.05
2022-12-31T04:31:51.825Z,70.83
2022-12-31T04:34:27.979Z,70.78
2022-12-31T04:37:02.198Z,70.88
2022-12-31T04:39:33.910Z,71.15
2022-12-31T04:42:05.743Z,70.87
2022-12-31T04:44:37.414Z,71.06
2022-12-31T04:47:09.064Z,71.43
2022-12-31T04:49:40.648Z,71.63
2022-12-31T04:52:12.435Z,71.57
2022-12-31T04:54:44.000Z,71.16
2022-12-31T04:57:16.673Z,70.97
2022-12-31T04:59:48.320Z,71.14
2022-12-31T05:02:20.192Z,71.21
2022-12-31T05:04:52.193Z,70.75
2022-12-31T05:07:24.014Z,70.71
2022-12-31T05:09:55.667Z,70.73
2022-12-31T05:12:27.214Z,70.78
2022-12-31T05:14:59.010Z,70.92
2022-12-31T05:17:30.893Z,71.35
2022-12-31T05:20:02.753Z,71.17
2022-12-31T05:22:34.553Z,71.60
2022-12-31T05:25:07.608Z,71.41
2022-12-31T05:27:39.932Z,71.59
2022-12-31T05:30:13.438Z,71.33
2022-12-31T05:32:44.956Z,71.10
2022-12-31T05:35:16.963Z,71.22
2022-12-31T05:37:48.681Z,71.50
2022-12-31T05:40:20.523Z,71.80
2022-12-31T05:42:52.838Z,71.61
2022-12-31T05:45:30.350Z,71.93
2022-12-31T05:48:02.941Z,71.72
2022-12-31T05:50:34.643Z,71.94
2022-12-31T05:53:06.341Z,71.88
2022-12-31T05:55:38.785Z,72.17
2022-12-31T05:58:10.303Z,72.02
2022-12-31T06:00:41.994Z,72.37
2022-12-31T06:03:13.973Z,72.36
2022-12-31T06:05:46.580Z,72.33
2022-12-31T06:08:18.348Z,72.52
2022-12-31T06:10:50.751Z,72.67
2022-12-31T06:13:22.382Z,72.73
2022-12-31T06:15:53.979Z,72.42
2022-12-31T06:18:26.430Z,72.98
2022-12-31T06:20:59.541Z,72.90
2022-12-31T06:23:32.097Z,72.75
2022-12-31T06:26:07.330Z,72.67
2022-12-31T06:28:39.168Z,72.88
2022-12-31T06:31:14.453Z,72.97
2022-12-31T06:33:47.922Z,72.98
2022-12-31T06:36:19.666Z,72.84
2022-12-31T06:38:51.465Z,73.18
2022-12-31T06:41:23.632Z,73.40
2022-12-31T06:43:55.261Z,73.08
2022-12-31T06:46:27.286Z,73.35
2022-12-31T06:48:58.974Z,73.17
2022-12-31T06:51:31.058Z,73.21
2022-12-31T06:54:02.653Z,72.88
2022-12-31T06:56:35.775Z,72.77
2022-12-31T06:59:08.521Z,72.53
2022-12-31T07:01:50.306Z,72.60
2022-12-31T07:04:46.232Z,72.57
2022-12-31T07:07:23.333Z,72.09
2022-12-31T07:10:03.272Z,72.02
2022-12-31T07:12:53.536Z,72.50
2022-12-31T07:15:45.922Z,72.73
2022-12-31T07:18:27.113Z,72.03
2022-12-31T07:21:00.670Z,71.88
2022-12-31T07:23:33.422Z,71.86
2022-12-31T07:26:12.743Z,71.88
2022-12-31T07:28:59.227Z,72.31
2022-12-31T07:31:45.636Z,72.05
2022-12-31T07:34:26.037Z,72.24
2022-12-31T07:37:08.341Z,71.84
2022-12-31T07:39:48.315Z,71.81
2022-12-31T07:42:25.845Z,72.32
2022-12-31T07:45:04.403Z,72.58
2022-12-31T07:47:37.973Z,72.88
2022-12-31T07:50:18.993Z,72.83
2022-12-31T07:52:51.580Z,72.69
2022-12-31T07:55:23.337Z,72.58
2022-12-31T07:58:00.915Z,72.46
2022-12-31T08:00:34.302Z,72.45
2022-12-31T08:03:17.844Z,71.94
2022-12-31T08:06:01.202Z,71.63
2022-12-31T08:08:44.781Z,71.54
2022-12-31T08:11:23.201Z,71.59
2022-12-31T08:13:57.660Z,71.28
2022-12-31T08:16:30.392Z,71.38
2022-12-31T08:19:04.738Z,71.72
2022-12-31T08:21:50.510Z,72.33
2022-12-31T08:24:30.253Z,72.14
2022-12-31T08:27:11.443Z,71.39
2022-12-31T08:29:50.254Z,70.38
2022-12-31T08:32:27.061Z,69.53
2022-12-31T08:35:10.083Z,69.47
2022-12-31T08:37:45.545Z,69.35
2022-12-31T08:40:26.659Z,69.16
2022-12-31T08:43:25.203Z,68.75
2022-12-31T08:45:58.585Z,68.83
2022-12-31T08:48:41.032Z,68.61
2022-12-31T08:51:20.454Z,69.11
2022-12-31T08:53:53.786Z,69.03
2022-12-31T08:56:33.394Z,68.97
2022-12-31T08:59:15.195Z,69.05
2022-12-31T09:02:10.528Z,69.42
2022-12-31T09:04:48.420Z,69.54
2022-12-31T09:07:25.281Z,69.75
2022-12-31T09:10:06.118Z,69.02
2022-12-31T09:12:47.623Z,68.44
2022-12-31T09:15:26.766Z,68.18
2022-12-31T09:17:59.274Z,68.58
2022-12-31T09:20:42.965Z,68.89
2022-12-31T09:23:16.166Z,68.84
2022-12-31T09:25:58.189Z,68.49
2022-12-31T09:28:40.939Z,68.73
2022-12-31T09:31:19.513Z,68.96
2022-12-31T09:33:57.775Z,69.04
2022-12-31T09:36:33.863Z,69.20
2022-12-31T09:39:13.803Z,69.42
2022-12-31T09:42:13.711Z,69.37
2022-12-31T09:45:12.549Z,69.25
2022-12-31T09:48:22.450Z,69.37
2022-12-31T09:51:07.317Z,69.42
2022-12-31T09:53:54.270Z,69.58
2022-12-31T09:56:31.160Z,69.54
2022-12-31T09:59:08.251Z,69.41
2022-12-31T10:01:50.949Z,69.07
2022-12-31T10:04:56.059Z,68.56
2022-12-31T10:07:52.023Z,68.26
2022-12-31T10:10:31.233Z,67.96
2022-12-31T10:13:30.724Z,68.03
2022-12-31T10:16:17.714Z,68.21
2022-12-31T10:19:11.109Z,68.16
2022-12-31T10:21:56.586Z,68.16
2022-12-31T10:24:57.377Z,67.73
2022-12-31T10:27:45.733Z,67.49
2022-12-31T10:30:20.646Z,66.79
2022-12-31T10:33:16.966Z,67.19
2022-12-31T10:35:56.187Z,66.93
2022-12-31T10:38:36.424Z,67.75
2022-12-31T10:41:39.188Z,67.90
2022-12-31T10:44:53.395Z,67.39
2022-12-31T10:50:50.556Z,67.99
2022-12-31T10:53:47.146Z,68.18
2022-12-31T10:56:44.806Z,68.15
2022-12-31T11:00:00.213Z,67.92
2022-12-31T11:03:03.048Z,67.86
2022-12-31T11:05:58.515Z,68.06
2022-12-31T11:09:02.607Z,68.15
2022-12-31T11:11:45.820Z,67.77
2022-12-31T11:14:40.000Z,67.57
2022-12-31T11:17:28.528Z,67.31
2022-12-31T11:20:16.228Z,67.42
2022-12-31T11:23:11.184Z,67.91
2022-12-31T11:25:56.553Z,67.94
2022-12-31T11:28:45.155Z,67.92
2022-12-31T11:31:29.256Z,67.52
2022-12-31T11:34:17.220Z,67.72
2022-12-31T11:37:09.640Z,67.82
2022-12-31T11:39:57.184Z,68.19
2022-12-31T11:42:42.072Z,68.47
2022-12-31T11:45:28.501Z,68.90
2022-12-31T11:48:31.594Z,69.12
2022-12-31T11:51:21.838Z,69.00
2022-12-31T11:54:27.719Z,69.22
2022-12-31T11:57:02.566Z,69.47
2022-12-31T11:59:34.586Z,69.60
2022-12-31T12:02:25.719Z,69.74
2022-12-31T12:05:06.395Z,70.05
2022-12-31T12:07:41.922Z,70.26
2022-12-31T12:10:29.296Z,69.93
2022-12-31T12:13:14.982Z,70.04
2022-12-31T12:15:50.464Z,69.74
2022-12-31T12:18:42.308Z,69.96
2022-12-31T12:21:17.934Z,69.89
2022-12-31T12:24:01.126Z,70.26
2022-12-31T12:26:38.162Z,70.69
2022-12-31T12:29:21.637Z,70.61
2022-12-31T12:32:03.477Z,70.39
2022-12-31T12:34:47.569Z,70.21
2022-12-31T12:37:37.486Z,69.87
2022-12-31T12:40:38.035Z,69.78
2022-12-31T12:43:22.727Z,70.06
2022-12-31T12:45:57.879Z,69.75
2022-12-31T12:48:38.886Z,69.64
2022-12-31T12:51:29.518Z,70.12
2022-12-31T12:54:33.967Z,69.90
2022-12-31T12:57:24.366Z,70.13
2022-12-31T13:00:58.694Z,69.69
2022-12-31T13:04:33.649Z,70.12
2022-12-31T13:07:29.281Z,69.67
2022-12-31T13:10:57.516Z,69.55
2022-12-31T13:13:48.237Z,69.08
2022-12-31T13:16:31.710Z,68.36
2022-12-31T13:20:19.186Z,68.16
2022-12-31T13:22:29.130Z,68.22
2022-12-31T13:25:07.668Z,68.07
2022-12-31T13:27:46.221Z,68.35
2022-12-31T13:30:20.978Z,68.62
2022-12-31T13:32:54.395Z,68.48
2022-12-31T13:35:31.296Z,68.59
2022-12-31T13:38:07.459Z,68.68
2022-12-31T13:40:50.635Z,68.70
2022-12-31T13:43:31.804Z,68.53
2022-12-31T13:46:12.110Z,68.74
2022-12-31T13:48:50.177Z,68.75
2022-12-31T13:51:31.570Z,68.78
2022-12-31T13:54:08.404Z,68.47
2022-12-31T13:56:44.103Z,68.38
2022-12-31T13:59:25.499Z,68.34
2022-12-31T14:02:11.649Z,68.34
2022-12-31T14:04:54.987Z,68.22
2022-12-31T14:07:45.597Z,68.26
2022-12-31T14:10:25.596Z,68.50
2022-12-31T14:13:09.606Z,68.58
2022-12-31T14:15:48.946Z,68.69
2022-12-31T14:18:38.777Z,68.90
2022-12-31T14:21:20.650Z,68.93
2022-12-31T14:24:10.902Z,68.68
2022-12-31T14:26:47.467Z,69.08
2022-12-31T14:29:40.964Z,69.33
2022-12-31T14:32:44.698Z,68.99
2022-12-31T14:35:43.202Z,68.67
2022-12-31T14:38:26.609Z,68.95
2022-12-31T14:41:11.742Z,68.50
2022-12-31T14:43:47.475Z,68.77
2022-12-31T14:46:32.668Z,68.89
2022-12-31T14:49:16.987Z,68.60
2022-12-31T14:51:49.937Z,68.18
2022-12-31T14:54:35.895Z,68.47
2022-12-31T14:57:25.236Z,68.46
2022-12-31T15:00:03.577Z,68.43
2022-12-31T15:02:55.982Z,68.33
2022-12-31T15:05:45.728Z,68.84
2022-12-31T15:08:43.437Z,68.90
2022-12-31T15:11:40.604Z,68.67
2022-12-31T15:14:37.547Z,68.92
2022-12-31T15:17:18.760Z,68.78
2022-12-31T15:20:34.717Z,69.07
2022-12-31T15:23:14.195Z,68.75
2022-12-31T15:25:52.004Z,68.78
2022-12-31T15:28:33.437Z,69.24
2022-12-31T15:31:15.946Z,69.02
2022-12-31T15:34:01.423Z,69.06
2022-12-31T15:36:35.909Z,68.77
2022-12-31T15:39:37.960Z,69.04
2022-12-31T15:42:38.725Z,68.82
2022-12-31T15:45:27.150Z,68.72
2022-12-31T15:48:07.899Z,68.72
2022-12-31T15:51:21.547Z,68.68
2022-12-31T15:53:52.512Z,68.84
2022-12-31T15:56:31.973Z,68.60
2022-12-31T15:59:06.048Z,68.66
2022-12-31T16:01:42.298Z,68.19
2022-12-31T16:04:23.661Z,68.04
2022-12-31T16:06:56.434Z,68.25
2022-12-31T16:09:30.869Z,68.39
2022-12-31T16:12:03.963Z,68.50
2022-12-31T16:14:41.827Z,68.47
2022-12-31T16:17:29.725Z,68.50
2022-12-31T16:20:04.079Z,68.36
2022-12-31T16:22:43.035Z,67.99
2022-12-31T16:25:37.293Z,67.65
2022-12-31T16:28:09.182Z,68.05
2022-12-31T16:30:44.432Z,67.86
2022-12-31T16:33:27.199Z,68.05
2022-12-31T16:36:09.194Z,68.60
2022-12-31T16:38:41.882Z,68.70
2022-12-31T16:41:28.860Z,68.60
2022-12-31T16:44:00.895Z,68.59
2022-12-31T16:46:35.816Z,68.43
2022-12-31T16:49:24.258Z,68.52
2022-12-31T16:52:03.656Z,68.87
2022-12-31T16:54:48.689Z,68.69
2022-12-31T16:57:24.746Z,68.36
2022-12-31T17:00:01.260Z,68.62
2022-12-31T17:02:41.175Z,68.81
2022-12-31T17:05:36.291Z,68.79
2022-12-31T17:13:00.995Z,68.13
2022-12-31T17:16:21.871Z,68.01
2022-12-31T17:22:36.355Z,68.02
2022-12-31T17:25:22.846Z,68.26
2022-12-31T17:28:25.118Z,68.32
2022-12-31T17:31:27.384Z,68.25
2022-12-31T17:34:35.975Z,68.53
2022-12-31T17:38:05.540Z,68.89
2022-12-31T17:43:42.197Z,68.72
2022-12-31T17:46:20.368Z,68.67
2022-12-31T17:48:58.104Z,68.90
2022-12-31T17:51:32.608Z,69.19
2022-12-31T17:54:07.972Z,68.90
2022-12-31T17:56:39.981Z,68.98
2022-12-31T17:59:16.241Z,69.03
2022-12-31T18:01:48.940Z,69.09
2022-12-31T18:04:22.430Z,68.76
2022-12-31T18:06:54.465Z,68.85
2022-12-31T18:09:26.454Z,69.01
2022-12-31T18:12:01.699Z,69.22
2022-12-31T18:14:36.426Z,68.83
2022-12-31T18:17:14.345Z,68.80
2022-12-31T18:20:04.204Z,68.75
2022-12-31T18:22:39.046Z,68.31
2022-12-31T18:25:24.363Z,68.63
2022-12-31T18:28:00.536Z,68.90
2022-12-31T18:30:33.249Z,68.76
2022-12-31T18:33:06.701Z,68.08
2022-12-31T18:36:07.704Z,67.77
2022-12-31T18:38:31.460Z,67.31
2022-12-31T18:41:03.669Z,67.26
2022-12-31T18:43:35.601Z,67.16
2022-12-31T18:46:08.146Z,67.52
2022-12-31T18:48:41.820Z,67.21
2022-12-31T18:51:17.818Z,67.10
2022-12-31T18:53:49.760Z,66.75
2022-12-31T18:56:25.503Z,66.29
2022-12-31T18:58:57.163Z,66.86
2022-12-31T19:01:35.320Z,67.07
2022-12-31T19:04:13.527Z,67.22
2022-12-31T19:06:49.037Z,66.83
2022-12-31T19:09:44.102Z,67.03
2022-12-31T19:12:15.984Z,66.91
2022-12-31T19:14:47.851Z,66.34
2022-12-31T19:17:19.665Z,66.49
2022-12-31T19:19:51.234Z,66.43
2022-12-31T19:22:22.927Z,66.59
2022-12-31T19:24:55.687Z,66.87
2022-12-31T19:27:27.890Z,66.90
2022-12-31T19:30:01.665Z,67.07
2022-12-31T19:32:33.231Z,67.32
2022-12-31T19:35:04.985Z,67.05
2022-12-31T19:37:37.106Z,66.58
2022-12-31T19:40:14.804Z,66.51
2022-12-31T19:42:46.513Z,66.55
2022-12-31T19:45:21.304Z,66.23
2022-12-31T19:47:53.930Z,66.16
2022-12-31T19:50:27.949Z,66.35
2022-12-31T19:53:01.822Z,66.35
2022-12-31T19:55:36.406Z,65.99
2022-12-31T19:58:06.377Z,65.94
2022-12-31T20:00:38.276Z,65.81
2022-12-31T20:03:11.345Z,65.34
2022-12-31T20:05:43.312Z,66.02
2022-12-31T20:08:17.195Z,66.40
2022-12-31T20:10:48.924Z,66.44
2022-12-31T20:13:20.817Z,66.35
2022-12-31T20:15:53.724Z,66.17
2022-12-31T20:18:25.258Z,66.67
2022-12-31T20:20:57.826Z,66.41
2022-12-31T20:23:30.037Z,66.21
2022-12-31T20:26:02.783Z,66.54
2022-12-31T20:28:35.176Z,66.51
2022-12-31T20:31:10.348Z,66.46
2022-12-31T20:33:43.266Z,66.77
2022-12-31T20:36:17.649Z,66.86
2022-12-31T20:38:50.528Z,66.98
2022-12-31T20:41:25.175Z,66.79
2022-12-31T20:43:55.416Z,66.58
2022-12-31T20:46:29.711Z,66.55
2022-12-31T20:49:05.821Z,66.75
2022-12-31T20:51:38.446Z,66.87
2022-12-31T20:54:12.097Z,67.27
2022-12-31T20:56:44.762Z,67.09
2022-12-31T20:59:17.404Z,66.99
2022-12-31T21:02:20.457Z,66.96
2022-12-31T21:04:47.206Z,67.09
2022-12-31T21:07:19.039Z,67.07
2022-12-31T21:09:52.443Z,67.10
2022-12-31T21:12:42.235Z,67.38
2022-12-31T21:15:23.950Z,67.38
2022-12-31T21:17:56.006Z,67.23
2022-12-31T21:20:27.943Z,67.27
2022-12-31T21:23:00.140Z,67.37
2022-12-31T21:25:33.653Z,67.34
2022-12-31T21:28:05.402Z,67.79
2022-12-31T21:30:39.480Z,67.70
2022-12-31T21:33:11.281Z,67.84
2022-12-31T21:35:48.676Z,67.78
2022-12-31T21:38:25.409Z,67.58
2022-12-31T21:41:05.167Z,67.74
2022-12-31T21:43:45.039Z,67.54
2022-12-31T21:46:16.815Z,67.27
2022-12-31T21:48:48.817Z,67.45
2022-12-31T21:51:21.601Z,67.62
2022-12-31T21:56:44.367Z,67.90
2022-12-31T21:59:33.582Z,67.40
2022-12-31T22:02:29.033Z,67.69
2022-12-31T22:05:02.587Z,68.11
2022-12-31T22:07:35.590Z,68.23
2022-12-31T22:10:12.762Z,68.16
2022-12-31T22:12:48.355Z,68.71
2022-12-31T22:15:20.728Z,68.99
2022-12-31T22:17:54.279Z,68.72
2022-12-31T22:20:27.894Z,68.53
2022-12-31T22:23:00.380Z,68.48
2022-12-31T22:25:34.222Z,68.21
2022-12-31T22:31:08.036Z,68.61
2022-12-31T22:33:40.504Z,68.61
2022-12-31T22:36:15.477Z,68.46
2022-12-31T22:38:51.943Z,68.28
2022-12-31T22:41:25.792Z,68.00
2022-12-31T22:44:04.124Z,67.98
2022-12-31T22:46:37.854Z,68.03
2022-12-31T22:49:24.780Z,68.05
2022-12-31T22:52:08.741Z,67.38
2022-12-31T22:54:41.689Z,67.05
2022-12-31T22:57:30.553Z,67.39
2022-12-31T23:00:18.227Z,67.21
2022-12-31T23:03:27.705Z,66.89
2022-12-31T23:06:02.505Z,66.38
2022-12-31T23:08:42.129Z,66.49
2022-12-31T23:11:13.745Z,66.11
2022-12-31T23:14:03.928Z,65.64
2022-12-31T23:16:53.179Z,65.58
2022-12-31T23:19:44.171Z,65.94
2022-12-31T23:22:32.748Z,65.89
2022-12-31T23:25:04.787Z,65.49
2022-12-31T23:27:36.603Z,65.28
2022-12-31T23:30:09.819Z,65.38
2022-12-31T23:32:43.372Z,65.17
2022-12-31T23:35:17.559Z,65.08
2022-12-31T23:37:49.390Z,65.16
2022-12-31T23:40:23.146Z,65.27
2022-12-31T23:42:55.076Z,65.64
2022-12-31T23:45:33.142Z,65.54
2022-12-31T23:48:05.626Z,65.41
2022-12-31T23:50:41.596Z,65.53
2022-12-31T23:53:18.114Z,65.59
2022-12-31T23:55:49.671Z,65.42
2022-12-31T23:58:21.641Z,65.31
